sensor_id;sensor_type;location;lat;lon;timestamp;P1;durP1;ratioP1;P2;durP2;ratioP2
69841;SDS011;57138;51.326;-0.068;2023-06-26T00:02:24;8.02;;;1.60;;
69841;SDS011;57138;51.326;-0.068;2023-06-26T00:04:49;7.78;;;2.40;;
69841;SDS011;57138;51.326;-0.068;2023-06-26T00:07:18;5.28;;;1.70;;
69841;SDS011;57138;51.326;-0.068;2023-06-26T00:09:44;7.60;;;1.58;;
69841;SDS011;57138;51.326;-0.068;2023-06-26T00:12:10;11.82;;;1.30;;
69841;SDS011;57138;51.326;-0.068;2023-06-26T00:14:35;9.32;;;1.98;;
69841;SDS011;57138;51.326;-0.068;2023-06-26T00:17:00;8.35;;;1.92;;
69841;SDS011;57138;51.326;-0.068;2023-06-26T00:19:26;9.52;;;1.60;;
69841;SDS011;57138;51.326;-0.068;2023-06-26T00:21:51;2.75;;;1.13;;
69841;SDS011;57138;51.326;-0.068;2023-06-26T00:24:17;4.85;;;1.52;;
69841;SDS011;57138;51.326;-0.068;2023-06-26T00:26:43;4.80;;;1.83;;
69841;SDS011;57138;51.326;-0.068;2023-06-26T00:29:11;10.35;;;2.05;;
69841;SDS011;57138;51.326;-0.068;2023-06-26T00:31:37;9.10;;;1.75;;
69841;SDS011;57138;51.326;-0.068;2023-06-26T00:34:03;7.68;;;1.77;;
69841;SDS011;57138;51.326;-0.068;2023-06-26T00:36:28;6.90;;;1.40;;
69841;SDS011;57138;51.326;-0.068;2023-06-26T00:38:54;4.97;;;1.52;;
69841;SDS011;57138;51.326;-0.068;2023-06-26T00:41:19;5.60;;;1.50;;
69841;SDS011;57138;51.326;-0.068;2023-06-26T00:43:45;4.78;;;1.50;;
69841;SDS011;57138;51.326;-0.068;2023-06-26T00:46:12;8.38;;;1.58;;
69841;SDS011;57138;51.326;-0.068;2023-06-26T00:48:39;8.18;;;1.30;;
69841;SDS011;57138;51.326;-0.068;2023-06-26T00:51:07;9.00;;;2.10;;
69841;SDS011;57138;51.326;-0.068;2023-06-26T00:53:33;12.82;;;1.75;;
69841;SDS011;57138;51.326;-0.068;2023-06-26T00:55:59;8.80;;;1.88;;
69841;SDS011;57138;51.326;-0.068;2023-06-26T00:58:25;7.72;;;1.75;;
69841;SDS011;57138;51.326;-0.068;2023-06-26T01:00:51;8.40;;;2.03;;
69841;SDS011;57138;51.326;-0.068;2023-06-26T01:03:17;10.90;;;1.77;;
69841;SDS011;57138;51.326;-0.068;2023-06-26T01:05:44;8.75;;;1.77;;
69841;SDS011;57138;51.326;-0.068;2023-06-26T01:08:13;5.70;;;1.33;;
69841;SDS011;57138;51.326;-0.068;2023-06-26T01:10:39;6.38;;;1.67;;
69841;SDS011;57138;51.326;-0.068;2023-06-26T01:13:05;7.57;;;1.67;;
69841;SDS011;57138;51.326;-0.068;2023-06-26T01:15:30;12.07;;;2.05;;
69841;SDS011;57138;51.326;-0.068;2023-06-26T01:17:56;10.52;;;1.40;;
69841;SDS011;57138;51.326;-0.068;2023-06-26T01:20:24;9.73;;;1.88;;
69841;SDS011;57138;51.326;-0.068;2023-06-26T01:25:30;10.00;;;2.55;;
69841;SDS011;57138;51.326;-0.068;2023-06-26T01:28:04;9.13;;;2.00;;
69841;SDS011;57138;51.326;-0.068;2023-06-26T01:30:31;8.50;;;2.22;;
69841;SDS011;57138;51.326;-0.068;2023-06-26T01:32:58;9.80;;;2.40;;
69841;SDS011;57138;51.326;-0.068;2023-06-26T01:35:24;9.07;;;2.50;;
69841;SDS011;57138;51.326;-0.068;2023-06-26T01:37:52;7.63;;;1.70;;
69841;SDS011;57138;51.326;-0.068;2023-06-26T01:40:17;8.52;;;2.08;;
69841;SDS011;57138;51.326;-0.068;2023-06-26T01:42:43;8.63;;;2.10;;
69841;SDS011;57138;51.326;-0.068;2023-06-26T01:45:17;9.80;;;1.85;;
69841;SDS011;57138;51.326;-0.068;2023-06-26T01:47:50;12.82;;;2.60;;
69841;SDS011;57138;51.326;-0.068;2023-06-26T01:50:28;10.32;;;2.30;;
69841;SDS011;57138;51.326;-0.068;2023-06-26T01:53:04;11.55;;;2.88;;
69841;SDS011;57138;51.326;-0.068;2023-06-26T01:55:37;10.82;;;2.50;;
69841;SDS011;57138;51.326;-0.068;2023-06-26T01:58:11;8.80;;;2.03;;
69841;SDS011;57138;51.326;-0.068;2023-06-26T02:00:45;15.07;;;2.40;;
69841;SDS011;57138;51.326;-0.068;2023-06-26T02:03:11;11.18;;;3.47;;
69841;SDS011;57138;51.326;-0.068;2023-06-26T02:05:36;12.10;;;2.30;;
69841;SDS011;57138;51.326;-0.068;2023-06-26T02:08:02;12.60;;;2.65;;
69841;SDS011;57138;51.326;-0.068;2023-06-26T02:10:28;11.55;;;2.53;;
69841;SDS011;57138;51.326;-0.068;2023-06-26T02:12:53;8.02;;;1.90;;
69841;SDS011;57138;51.326;-0.068;2023-06-26T02:15:19;12.82;;;3.00;;
69841;SDS011;57138;51.326;-0.068;2023-06-26T02:17:45;13.68;;;2.40;;
69841;SDS011;57138;51.326;-0.068;2023-06-26T02:20:13;14.13;;;2.90;;
69841;SDS011;57138;51.326;-0.068;2023-06-26T02:22:39;13.63;;;3.13;;
69841;SDS011;57138;51.326;-0.068;2023-06-26T02:25:05;11.82;;;1.90;;
69841;SDS011;57138;51.326;-0.068;2023-06-26T02:27:30;11.77;;;2.58;;
69841;SDS011;57138;51.326;-0.068;2023-06-26T02:29:56;10.38;;;2.88;;
69841;SDS011;57138;51.326;-0.068;2023-06-26T02:32:21;8.13;;;2.20;;
69841;SDS011;57138;51.326;-0.068;2023-06-26T02:34:47;9.32;;;2.60;;
69841;SDS011;57138;51.326;-0.068;2023-06-26T02:37:12;12.90;;;3.08;;
69841;SDS011;57138;51.326;-0.068;2023-06-26T02:39:38;14.27;;;2.28;;
69841;SDS011;57138;51.326;-0.068;2023-06-26T02:42:03;9.98;;;2.40;;
69841;SDS011;57138;51.326;-0.068;2023-06-26T02:44:29;19.52;;;3.33;;
69841;SDS011;57138;51.326;-0.068;2023-06-26T02:46:54;9.73;;;2.33;;
69841;SDS011;57138;51.326;-0.068;2023-06-26T02:49:22;14.23;;;2.60;;
69841;SDS011;57138;51.326;-0.068;2023-06-26T02:51:47;10.05;;;2.08;;
69841;SDS011;57138;51.326;-0.068;2023-06-26T02:54:13;10.73;;;2.00;;
69841;SDS011;57138;51.326;-0.068;2023-06-26T02:56:38;13.25;;;2.90;;
69841;SDS011;57138;51.326;-0.068;2023-06-26T02:59:04;9.32;;;2.63;;
69841;SDS011;57138;51.326;-0.068;2023-06-26T03:01:29;7.53;;;2.40;;
69841;SDS011;57138;51.326;-0.068;2023-06-26T03:03:55;11.65;;;3.22;;
69841;SDS011;57138;51.326;-0.068;2023-06-26T03:06:21;9.38;;;1.83;;
69841;SDS011;57138;51.326;-0.068;2023-06-26T03:08:46;11.57;;;2.40;;
69841;SDS011;57138;51.326;-0.068;2023-06-26T03:11:12;12.48;;;2.20;;
69841;SDS011;57138;51.326;-0.068;2023-06-26T03:13:37;10.95;;;2.05;;
69841;SDS011;57138;51.326;-0.068;2023-06-26T03:16:03;10.10;;;2.75;;
69841;SDS011;57138;51.326;-0.068;2023-06-26T03:18:29;17.20;;;3.60;;
69841;SDS011;57138;51.326;-0.068;2023-06-26T03:20:56;12.70;;;3.05;;
69841;SDS011;57138;51.326;-0.068;2023-06-26T03:23:26;8.88;;;3.88;;
69841;SDS011;57138;51.326;-0.068;2023-06-26T03:25:51;12.13;;;2.58;;
69841;SDS011;57138;51.326;-0.068;2023-06-26T03:28:17;10.40;;;2.70;;
69841;SDS011;57138;51.326;-0.068;2023-06-26T03:30:42;12.55;;;2.80;;
69841;SDS011;57138;51.326;-0.068;2023-06-26T03:33:08;13.40;;;2.58;;
69841;SDS011;57138;51.326;-0.068;2023-06-26T03:35:33;7.78;;;2.20;;
69841;SDS011;57138;51.326;-0.068;2023-06-26T03:37:59;15.30;;;2.72;;
69841;SDS011;57138;51.326;-0.068;2023-06-26T03:40:25;8.05;;;2.20;;
69841;SDS011;57138;51.326;-0.068;2023-06-26T03:42:51;13.60;;;3.55;;
69841;SDS011;57138;51.326;-0.068;2023-06-26T03:45:16;10.40;;;2.30;;
69841;SDS011;57138;51.326;-0.068;2023-06-26T03:47:42;9.32;;;2.30;;
69841;SDS011;57138;51.326;-0.068;2023-06-26T03:50:08;16.63;;;2.72;;
69841;SDS011;57138;51.326;-0.068;2023-06-26T03:52:33;12.73;;;2.28;;
69841;SDS011;57138;51.326;-0.068;2023-06-26T03:55:00;16.38;;;2.55;;
69841;SDS011;57138;51.326;-0.068;2023-06-26T03:57:26;13.10;;;2.78;;
69841;SDS011;57138;51.326;-0.068;2023-06-26T03:59:52;13.23;;;2.90;;
69841;SDS011;57138;51.326;-0.068;2023-06-26T04:02:18;13.88;;;2.63;;
69841;SDS011;57138;51.326;-0.068;2023-06-26T04:04:43;12.15;;;2.65;;
69841;SDS011;57138;51.326;-0.068;2023-06-26T04:07:09;12.93;;;2.55;;
69841;SDS011;57138;51.326;-0.068;2023-06-26T04:09:35;8.02;;;2.28;;
69841;SDS011;57138;51.326;-0.068;2023-06-26T04:12:00;9.30;;;2.28;;
69841;SDS011;57138;51.326;-0.068;2023-06-26T04:14:26;11.68;;;2.05;;
69841;SDS011;57138;51.326;-0.068;2023-06-26T04:16:51;14.50;;;2.25;;
69841;SDS011;57138;51.326;-0.068;2023-06-26T04:19:17;12.32;;;2.65;;
69841;SDS011;57138;51.326;-0.068;2023-06-26T04:21:43;12.65;;;2.47;;
69841;SDS011;57138;51.326;-0.068;2023-06-26T04:24:08;12.43;;;2.40;;
69841;SDS011;57138;51.326;-0.068;2023-06-26T04:26:34;14.30;;;2.80;;
69841;SDS011;57138;51.326;-0.068;2023-06-26T04:29:00;7.93;;;2.40;;
69841;SDS011;57138;51.326;-0.068;2023-06-26T04:31:25;9.48;;;2.10;;
69841;SDS011;57138;51.326;-0.068;2023-06-26T04:33:51;8.73;;;2.47;;
69841;SDS011;57138;51.326;-0.068;2023-06-26T04:36:19;12.55;;;2.10;;
69841;SDS011;57138;51.326;-0.068;2023-06-26T04:38:45;16.85;;;2.75;;
69841;SDS011;57138;51.326;-0.068;2023-06-26T04:41:13;11.27;;;2.08;;
69841;SDS011;57138;51.326;-0.068;2023-06-26T04:43:39;12.50;;;3.40;;
69841;SDS011;57138;51.326;-0.068;2023-06-26T04:46:05;16.73;;;2.60;;
69841;SDS011;57138;51.326;-0.068;2023-06-26T04:48:31;13.07;;;2.45;;
69841;SDS011;57138;51.326;-0.068;2023-06-26T04:50:57;11.90;;;2.53;;
69841;SDS011;57138;51.326;-0.068;2023-06-26T04:53:24;13.27;;;2.15;;
69841;SDS011;57138;51.326;-0.068;2023-06-26T04:55:50;8.27;;;2.30;;
69841;SDS011;57138;51.326;-0.068;2023-06-26T04:58:16;8.77;;;2.38;;
69841;SDS011;57138;51.326;-0.068;2023-06-26T05:00:42;10.10;;;1.98;;
69841;SDS011;57138;51.326;-0.068;2023-06-26T05:03:11;12.73;;;2.05;;
69841;SDS011;57138;51.326;-0.068;2023-06-26T05:05:37;13.20;;;3.33;;
69841;SDS011;57138;51.326;-0.068;2023-06-26T05:08:16;9.38;;;2.35;;
69841;SDS011;57138;51.326;-0.068;2023-06-26T05:10:53;11.18;;;1.98;;
69841;SDS011;57138;51.326;-0.068;2023-06-26T05:13:22;8.80;;;2.38;;
69841;SDS011;57138;51.326;-0.068;2023-06-26T05:15:48;13.40;;;2.60;;
69841;SDS011;57138;51.326;-0.068;2023-06-26T05:18:14;10.98;;;2.17;;
69841;SDS011;57138;51.326;-0.068;2023-06-26T05:20:39;13.43;;;2.83;;
69841;SDS011;57138;51.326;-0.068;2023-06-26T05:23:05;11.60;;;2.55;;
69841;SDS011;57138;51.326;-0.068;2023-06-26T05:25:31;13.60;;;2.05;;
69841;SDS011;57138;51.326;-0.068;2023-06-26T05:27:59;13.95;;;3.30;;
69841;SDS011;57138;51.326;-0.068;2023-06-26T05:30:25;14.25;;;2.70;;
69841;SDS011;57138;51.326;-0.068;2023-06-26T05:32:52;16.52;;;2.85;;
69841;SDS011;57138;51.326;-0.068;2023-06-26T05:35:19;13.82;;;1.85;;
69841;SDS011;57138;51.326;-0.068;2023-06-26T05:37:50;10.23;;;2.15;;
69841;SDS011;57138;51.326;-0.068;2023-06-26T05:40:17;12.13;;;2.30;;
69841;SDS011;57138;51.326;-0.068;2023-06-26T05:42:44;14.30;;;3.17;;
69841;SDS011;57138;51.326;-0.068;2023-06-26T05:45:14;13.18;;;2.40;;
69841;SDS011;57138;51.326;-0.068;2023-06-26T05:47:49;14.63;;;2.08;;
69841;SDS011;57138;51.326;-0.068;2023-06-26T05:50:15;14.60;;;2.88;;
69841;SDS011;57138;51.326;-0.068;2023-06-26T05:52:42;20.67;;;3.05;;
69841;SDS011;57138;51.326;-0.068;2023-06-26T05:55:09;10.80;;;2.50;;
69841;SDS011;57138;51.326;-0.068;2023-06-26T05:57:35;13.02;;;3.25;;
69841;SDS011;57138;51.326;-0.068;2023-06-26T06:00:03;9.75;;;2.25;;
69841;SDS011;57138;51.326;-0.068;2023-06-26T06:02:31;10.13;;;2.67;;
69841;SDS011;57138;51.326;-0.068;2023-06-26T06:04:56;13.88;;;2.15;;
69841;SDS011;57138;51.326;-0.068;2023-06-26T06:07:21;10.88;;;2.30;;
69841;SDS011;57138;51.326;-0.068;2023-06-26T06:09:47;16.13;;;2.97;;
69841;SDS011;57138;51.326;-0.068;2023-06-26T06:12:13;12.90;;;2.42;;
69841;SDS011;57138;51.326;-0.068;2023-06-26T06:14:39;12.02;;;2.35;;
69841;SDS011;57138;51.326;-0.068;2023-06-26T06:17:04;11.35;;;2.33;;
69841;SDS011;57138;51.326;-0.068;2023-06-26T06:19:30;14.07;;;2.70;;
69841;SDS011;57138;51.326;-0.068;2023-06-26T06:21:55;13.90;;;2.58;;
69841;SDS011;57138;51.326;-0.068;2023-06-26T06:24:21;14.98;;;3.33;;
69841;SDS011;57138;51.326;-0.068;2023-06-26T06:26:46;14.68;;;3.58;;
69841;SDS011;57138;51.326;-0.068;2023-06-26T06:29:12;7.97;;;2.50;;
69841;SDS011;57138;51.326;-0.068;2023-06-26T06:31:37;15.57;;;2.40;;
69841;SDS011;57138;51.326;-0.068;2023-06-26T06:34:03;12.50;;;2.35;;
69841;SDS011;57138;51.326;-0.068;2023-06-26T06:36:28;11.90;;;2.75;;
69841;SDS011;57138;51.326;-0.068;2023-06-26T06:38:53;17.88;;;2.60;;
69841;SDS011;57138;51.326;-0.068;2023-06-26T06:41:20;8.88;;;2.10;;
69841;SDS011;57138;51.326;-0.068;2023-06-26T06:43:45;10.65;;;2.90;;
69841;SDS011;57138;51.326;-0.068;2023-06-26T06:46:11;11.88;;;2.42;;
69841;SDS011;57138;51.326;-0.068;2023-06-26T06:48:36;8.02;;;2.63;;
69841;SDS011;57138;51.326;-0.068;2023-06-26T06:51:02;12.93;;;2.65;;
69841;SDS011;57138;51.326;-0.068;2023-06-26T06:53:28;15.27;;;3.30;;
69841;SDS011;57138;51.326;-0.068;2023-06-26T06:55:54;9.60;;;2.03;;
69841;SDS011;57138;51.326;-0.068;2023-06-26T06:58:19;11.15;;;2.30;;
69841;SDS011;57138;51.326;-0.068;2023-06-26T07:00:45;7.03;;;1.70;;
69841;SDS011;57138;51.326;-0.068;2023-06-26T07:03:10;12.18;;;3.67;;
69841;SDS011;57138;51.326;-0.068;2023-06-26T07:05:36;10.80;;;2.10;;
69841;SDS011;57138;51.326;-0.068;2023-06-26T07:08:02;8.13;;;2.00;;
69841;SDS011;57138;51.326;-0.068;2023-06-26T07:10:28;12.52;;;2.25;;
69841;SDS011;57138;51.326;-0.068;2023-06-26T07:12:54;12.25;;;2.08;;
69841;SDS011;57138;51.326;-0.068;2023-06-26T07:15:19;9.45;;;2.13;;
69841;SDS011;57138;51.326;-0.068;2023-06-26T07:17:45;9.90;;;2.03;;
69841;SDS011;57138;51.326;-0.068;2023-06-26T07:20:11;8.63;;;2.50;;
69841;SDS011;57138;51.326;-0.068;2023-06-26T07:22:40;16.55;;;2.40;;
69841;SDS011;57138;51.326;-0.068;2023-06-26T07:25:06;15.20;;;3.25;;
69841;SDS011;57138;51.326;-0.068;2023-06-26T07:27:34;9.32;;;1.88;;
69841;SDS011;57138;51.326;-0.068;2023-06-26T07:30:00;10.27;;;1.83;;
69841;SDS011;57138;51.326;-0.068;2023-06-26T07:32:26;9.70;;;1.90;;
69841;SDS011;57138;51.326;-0.068;2023-06-26T07:34:52;8.05;;;2.17;;
69841;SDS011;57138;51.326;-0.068;2023-06-26T07:37:17;13.32;;;2.20;;
69841;SDS011;57138;51.326;-0.068;2023-06-26T07:39:43;10.02;;;1.85;;
69841;SDS011;57138;51.326;-0.068;2023-06-26T07:42:09;11.48;;;1.90;;
69841;SDS011;57138;51.326;-0.068;2023-06-26T07:44:34;6.38;;;1.90;;
69841;SDS011;57138;51.326;-0.068;2023-06-26T07:47:00;7.93;;;1.55;;
69841;SDS011;57138;51.326;-0.068;2023-06-26T07:49:26;12.98;;;3.10;;
69841;SDS011;57138;51.326;-0.068;2023-06-26T07:51:51;11.25;;;2.30;;
69841;SDS011;57138;51.326;-0.068;2023-06-26T07:54:17;8.40;;;1.90;;
69841;SDS011;57138;51.326;-0.068;2023-06-26T07:56:52;12.60;;;1.63;;
69841;SDS011;57138;51.326;-0.068;2023-06-26T07:59:21;10.13;;;1.73;;
69841;SDS011;57138;51.326;-0.068;2023-06-26T08:01:49;10.15;;;2.65;;
69841;SDS011;57138;51.326;-0.068;2023-06-26T08:04:15;5.30;;;1.55;;
69841;SDS011;57138;51.326;-0.068;2023-06-26T08:06:42;9.20;;;1.85;;
69841;SDS011;57138;51.326;-0.068;2023-06-26T08:09:08;12.77;;;1.80;;
69841;SDS011;57138;51.326;-0.068;2023-06-26T08:11:34;11.73;;;1.67;;
69841;SDS011;57138;51.326;-0.068;2023-06-26T08:14:00;7.85;;;1.35;;
69841;SDS011;57138;51.326;-0.068;2023-06-26T08:16:25;10.07;;;1.42;;
69841;SDS011;57138;51.326;-0.068;2023-06-26T08:18:51;8.50;;;2.33;;
69841;SDS011;57138;51.326;-0.068;2023-06-26T08:21:16;6.78;;;1.70;;
69841;SDS011;57138;51.326;-0.068;2023-06-26T08:23:42;6.03;;;1.40;;
69841;SDS011;57138;51.326;-0.068;2023-06-26T08:26:07;8.77;;;1.90;;
69841;SDS011;57138;51.326;-0.068;2023-06-26T08:28:33;9.27;;;1.48;;
69841;SDS011;57138;51.326;-0.068;2023-06-26T08:30:59;7.70;;;1.50;;
69841;SDS011;57138;51.326;-0.068;2023-06-26T08:33:25;11.45;;;1.75;;
69841;SDS011;57138;51.326;-0.068;2023-06-26T08:35:50;8.43;;;1.38;;
69841;SDS011;57138;51.326;-0.068;2023-06-26T08:38:16;6.82;;;1.60;;
69841;SDS011;57138;51.326;-0.068;2023-06-26T08:40:42;7.15;;;1.50;;
69841;SDS011;57138;51.326;-0.068;2023-06-26T08:43:07;7.60;;;1.42;;
69841;SDS011;57138;51.326;-0.068;2023-06-26T08:45:33;7.28;;;2.38;;
69841;SDS011;57138;51.326;-0.068;2023-06-26T08:48:00;8.98;;;1.42;;
69841;SDS011;57138;51.326;-0.068;2023-06-26T08:50:27;9.38;;;1.33;;
69841;SDS011;57138;51.326;-0.068;2023-06-26T08:52:58;7.88;;;1.70;;
69841;SDS011;57138;51.326;-0.068;2023-06-26T08:55:29;5.43;;;0.95;;
69841;SDS011;57138;51.326;-0.068;2023-06-26T08:57:58;4.85;;;1.40;;
69841;SDS011;57138;51.326;-0.068;2023-06-26T09:00:25;7.80;;;1.50;;
69841;SDS011;57138;51.326;-0.068;2023-06-26T09:02:50;9.65;;;1.92;;
69841;SDS011;57138;51.326;-0.068;2023-06-26T09:05:17;5.88;;;1.35;;
69841;SDS011;57138;51.326;-0.068;2023-06-26T09:07:44;11.48;;;2.08;;
69841;SDS011;57138;51.326;-0.068;2023-06-26T09:10:11;6.50;;;1.67;;
69841;SDS011;57138;51.326;-0.068;2023-06-26T09:12:37;7.97;;;1.45;;
69841;SDS011;57138;51.326;-0.068;2023-06-26T09:15:04;9.18;;;1.30;;
69841;SDS011;57138;51.326;-0.068;2023-06-26T09:17:33;6.25;;;1.58;;
69841;SDS011;57138;51.326;-0.068;2023-06-26T09:20:05;5.15;;;1.30;;
69841;SDS011;57138;51.326;-0.068;2023-06-26T09:22:33;8.18;;;1.73;;
69841;SDS011;57138;51.326;-0.068;2023-06-26T09:25:04;4.32;;;1.20;;
69841;SDS011;57138;51.326;-0.068;2023-06-26T09:27:30;6.75;;;1.27;;
69841;SDS011;57138;51.326;-0.068;2023-06-26T09:29:56;4.55;;;1.20;;
69841;SDS011;57138;51.326;-0.068;2023-06-26T09:32:24;6.45;;;1.50;;
69841;SDS011;57138;51.326;-0.068;2023-06-26T09:34:51;7.80;;;2.00;;
69841;SDS011;57138;51.326;-0.068;2023-06-26T09:37:19;5.72;;;1.50;;
69841;SDS011;57138;51.326;-0.068;2023-06-26T09:39:45;6.68;;;1.08;;
69841;SDS011;57138;51.326;-0.068;2023-06-26T09:42:13;6.63;;;1.20;;
69841;SDS011;57138;51.326;-0.068;2023-06-26T09:44:46;5.07;;;1.02;;
69841;SDS011;57138;51.326;-0.068;2023-06-26T09:47:17;6.50;;;1.10;;
69841;SDS011;57138;51.326;-0.068;2023-06-26T09:49:45;4.43;;;1.38;;
69841;SDS011;57138;51.326;-0.068;2023-06-26T09:52:15;5.78;;;1.35;;
69841;SDS011;57138;51.326;-0.068;2023-06-26T09:54:42;4.32;;;1.02;;
69841;SDS011;57138;51.326;-0.068;2023-06-26T09:57:11;7.93;;;1.15;;
69841;SDS011;57138;51.326;-0.068;2023-06-26T09:59:38;3.97;;;1.08;;
69841;SDS011;57138;51.326;-0.068;2023-06-26T10:02:05;5.63;;;1.10;;
69841;SDS011;57138;51.326;-0.068;2023-06-26T10:04:31;4.65;;;1.48;;
69841;SDS011;57138;51.326;-0.068;2023-06-26T10:06:57;3.63;;;1.10;;
69841;SDS011;57138;51.326;-0.068;2023-06-26T10:09:26;5.72;;;1.50;;
69841;SDS011;57138;51.326;-0.068;2023-06-26T10:14:42;3.97;;;0.93;;
69841;SDS011;57138;51.326;-0.068;2023-06-26T10:17:11;8.07;;;1.17;;
69841;SDS011;57138;51.326;-0.068;2023-06-26T10:19:43;4.25;;;1.00;;
69841;SDS011;57138;51.326;-0.068;2023-06-26T10:22:11;7.90;;;1.17;;
69841;SDS011;57138;51.326;-0.068;2023-06-26T10:24:40;7.00;;;1.90;;
69841;SDS011;57138;51.326;-0.068;2023-06-26T10:27:08;5.70;;;1.05;;
69841;SDS011;57138;51.326;-0.068;2023-06-26T10:29:44;4.15;;;1.17;;
69841;SDS011;57138;51.326;-0.068;2023-06-26T10:32:14;4.40;;;1.08;;
69841;SDS011;57138;51.326;-0.068;2023-06-26T10:34:41;9.15;;;1.65;;
69841;SDS011;57138;51.326;-0.068;2023-06-26T10:37:07;3.53;;;1.15;;
69841;SDS011;57138;51.326;-0.068;2023-06-26T10:39:46;10.70;;;1.40;;
69841;SDS011;57138;51.326;-0.068;2023-06-26T10:42:14;4.18;;;1.08;;
69841;SDS011;57138;51.326;-0.068;2023-06-26T10:44:41;4.47;;;1.23;;
69841;SDS011;57138;51.326;-0.068;2023-06-26T10:47:11;5.05;;;1.20;;
69841;SDS011;57138;51.326;-0.068;2023-06-26T10:49:37;6.38;;;1.85;;
69841;SDS011;57138;51.326;-0.068;2023-06-26T10:52:07;4.50;;;1.10;;
69841;SDS011;57138;51.326;-0.068;2023-06-26T10:54:33;5.47;;;1.02;;
69841;SDS011;57138;51.326;-0.068;2023-06-26T10:56:59;4.78;;;1.08;;
69841;SDS011;57138;51.326;-0.068;2023-06-26T10:59:27;5.28;;;1.20;;
69841;SDS011;57138;51.326;-0.068;2023-06-26T11:01:54;4.60;;;1.23;;
69841;SDS011;57138;51.326;-0.068;2023-06-26T11:04:43;6.35;;;1.30;;
69841;SDS011;57138;51.326;-0.068;2023-06-26T11:07:15;5.07;;;1.15;;
69841;SDS011;57138;51.326;-0.068;2023-06-26T11:15:25;6.35;;;1.40;;
69841;SDS011;57138;51.326;-0.068;2023-06-26T11:17:52;5.80;;;1.10;;
69841;SDS011;57138;51.326;-0.068;2023-06-26T11:20:18;4.43;;;1.05;;
69841;SDS011;57138;51.326;-0.068;2023-06-26T11:22:44;7.75;;;2.38;;
69841;SDS011;57138;51.326;-0.068;2023-06-26T11:25:10;5.97;;;1.13;;
69841;SDS011;57138;51.326;-0.068;2023-06-26T11:27:42;7.30;;;1.55;;
69841;SDS011;57138;51.326;-0.068;2023-06-26T11:30:09;4.20;;;1.13;;
69841;SDS011;57138;51.326;-0.068;2023-06-26T11:32:37;5.20;;;1.38;;
69841;SDS011;57138;51.326;-0.068;2023-06-26T11:35:03;5.13;;;1.20;;
69841;SDS011;57138;51.326;-0.068;2023-06-26T11:37:30;5.28;;;1.10;;
69841;SDS011;57138;51.326;-0.068;2023-06-26T11:39:57;6.65;;;2.05;;
69841;SDS011;57138;51.326;-0.068;2023-06-26T11:42:41;4.90;;;1.10;;
69841;SDS011;57138;51.326;-0.068;2023-06-26T11:45:07;6.55;;;1.33;;
69841;SDS011;57138;51.326;-0.068;2023-06-26T11:47:32;5.32;;;1.20;;
69841;SDS011;57138;51.326;-0.068;2023-06-26T11:49:58;3.90;;;1.00;;
69841;SDS011;57138;51.326;-0.068;2023-06-26T11:52:24;4.93;;;1.30;;
69841;SDS011;57138;51.326;-0.068;2023-06-26T11:54:50;7.05;;;1.20;;
69841;SDS011;57138;51.326;-0.068;2023-06-26T11:57:15;5.65;;;1.17;;
69841;SDS011;57138;51.326;-0.068;2023-06-26T11:59:42;4.60;;;1.33;;
69841;SDS011;57138;51.326;-0.068;2023-06-26T12:02:12;3.97;;;1.00;;
69841;SDS011;57138;51.326;-0.068;2023-06-26T12:04:40;4.45;;;1.20;;
69841;SDS011;57138;51.326;-0.068;2023-06-26T12:07:08;5.65;;;1.25;;
69841;SDS011;57138;51.326;-0.068;2023-06-26T12:09:53;6.32;;;1.20;;
69841;SDS011;57138;51.326;-0.068;2023-06-26T12:12:20;2.67;;;1.10;;
69841;SDS011;57138;51.326;-0.068;2023-06-26T12:14:47;8.23;;;1.73;;
69841;SDS011;57138;51.326;-0.068;2023-06-26T12:17:13;4.93;;;1.85;;
69841;SDS011;57138;51.326;-0.068;2023-06-26T12:19:42;7.78;;;2.05;;
69841;SDS011;57138;51.326;-0.068;2023-06-26T12:22:09;5.00;;;1.80;;
69841;SDS011;57138;51.326;-0.068;2023-06-26T12:24:36;7.32;;;2.15;;
69841;SDS011;57138;51.326;-0.068;2023-06-26T12:27:07;5.55;;;1.45;;
69841;SDS011;57138;51.326;-0.068;2023-06-26T12:29:34;6.80;;;1.40;;
69841;SDS011;57138;51.326;-0.068;2023-06-26T12:32:00;5.03;;;1.33;;
69841;SDS011;57138;51.326;-0.068;2023-06-26T12:34:37;5.95;;;1.10;;
69841;SDS011;57138;51.326;-0.068;2023-06-26T12:37:10;6.00;;;1.58;;
69841;SDS011;57138;51.326;-0.068;2023-06-26T12:44:49;3.22;;;0.90;;
69841;SDS011;57138;51.326;-0.068;2023-06-26T12:47:16;7.05;;;1.17;;
69841;SDS011;57138;51.326;-0.068;2023-06-26T12:49:43;5.45;;;1.27;;
69841;SDS011;57138;51.326;-0.068;2023-06-26T12:52:10;3.90;;;1.13;;
69841;SDS011;57138;51.326;-0.068;2023-06-26T12:54:39;8.13;;;1.30;;
69841;SDS011;57138;51.326;-0.068;2023-06-26T12:57:06;8.55;;;1.20;;
69841;SDS011;57138;51.326;-0.068;2023-06-26T12:59:33;6.05;;;2.17;;
69841;SDS011;57138;51.326;-0.068;2023-06-26T13:02:02;4.93;;;1.33;;
69841;SDS011;57138;51.326;-0.068;2023-06-26T13:04:29;7.03;;;1.70;;
69841;SDS011;57138;51.326;-0.068;2023-06-26T13:06:55;5.43;;;1.20;;
69841;SDS011;57138;51.326;-0.068;2023-06-26T13:09:22;6.40;;;1.33;;
69841;SDS011;57138;51.326;-0.068;2023-06-26T13:11:50;7.30;;;1.60;;
69841;SDS011;57138;51.326;-0.068;2023-06-26T13:14:18;6.20;;;1.58;;
69841;SDS011;57138;51.326;-0.068;2023-06-26T13:16:44;5.80;;;1.35;;
69841;SDS011;57138;51.326;-0.068;2023-06-26T13:19:10;6.70;;;1.60;;
69841;SDS011;57138;51.326;-0.068;2023-06-26T13:21:35;6.60;;;1.65;;
69841;SDS011;57138;51.326;-0.068;2023-06-26T13:24:02;5.65;;;1.60;;
69841;SDS011;57138;51.326;-0.068;2023-06-26T13:26:29;10.20;;;2.03;;
69841;SDS011;57138;51.326;-0.068;2023-06-26T13:28:55;7.80;;;1.40;;
69841;SDS011;57138;51.326;-0.068;2023-06-26T13:31:21;5.47;;;1.23;;
69841;SDS011;57138;51.326;-0.068;2023-06-26T13:33:47;8.02;;;1.40;;
69841;SDS011;57138;51.326;-0.068;2023-06-26T13:36:19;8.10;;;1.95;;
69841;SDS011;57138;51.326;-0.068;2023-06-26T13:38:46;6.28;;;1.40;;
69841;SDS011;57138;51.326;-0.068;2023-06-26T13:41:15;6.18;;;1.52;;
69841;SDS011;57138;51.326;-0.068;2023-06-26T13:43:41;10.88;;;1.85;;
69841;SDS011;57138;51.326;-0.068;2023-06-26T13:46:07;9.27;;;1.30;;
69841;SDS011;57138;51.326;-0.068;2023-06-26T13:48:33;7.28;;;1.35;;
69841;SDS011;57138;51.326;-0.068;2023-06-26T13:50:58;9.10;;;1.42;;
69841;SDS011;57138;51.326;-0.068;2023-06-26T13:53:25;4.45;;;1.45;;
69841;SDS011;57138;51.326;-0.068;2023-06-26T13:55:50;6.18;;;1.52;;
69841;SDS011;57138;51.326;-0.068;2023-06-26T13:58:16;7.65;;;1.52;;
69841;SDS011;57138;51.326;-0.068;2023-06-26T14:00:42;5.57;;;1.08;;
69841;SDS011;57138;51.326;-0.068;2023-06-26T14:03:10;4.93;;;1.45;;
69841;SDS011;57138;51.326;-0.068;2023-06-26T14:05:41;6.32;;;1.60;;
69841;SDS011;57138;51.326;-0.068;2023-06-26T14:08:07;5.53;;;1.13;;
69841;SDS011;57138;51.326;-0.068;2023-06-26T14:10:33;11.05;;;2.03;;
69841;SDS011;57138;51.326;-0.068;2023-06-26T14:13:00;6.82;;;1.27;;
69841;SDS011;57138;51.326;-0.068;2023-06-26T14:15:25;5.53;;;2.00;;
69841;SDS011;57138;51.326;-0.068;2023-06-26T14:17:51;7.63;;;1.45;;
69841;SDS011;57138;51.326;-0.068;2023-06-26T14:20:17;8.52;;;1.85;;
69841;SDS011;57138;51.326;-0.068;2023-06-26T14:22:47;12.18;;;2.85;;
69841;SDS011;57138;51.326;-0.068;2023-06-26T14:25:13;9.90;;;3.00;;
69841;SDS011;57138;51.326;-0.068;2023-06-26T14:27:39;8.88;;;2.53;;
69841;SDS011;57138;51.326;-0.068;2023-06-26T14:30:05;12.20;;;2.47;;
69841;SDS011;57138;51.326;-0.068;2023-06-26T14:32:35;5.93;;;2.00;;
69841;SDS011;57138;51.326;-0.068;2023-06-26T14:35:01;7.15;;;2.22;;
69841;SDS011;57138;51.326;-0.068;2023-06-26T14:37:28;11.85;;;4.03;;
69841;SDS011;57138;51.326;-0.068;2023-06-26T14:39:56;6.72;;;2.20;;
69841;SDS011;57138;51.326;-0.068;2023-06-26T14:42:22;9.32;;;2.20;;
69841;SDS011;57138;51.326;-0.068;2023-06-26T14:44:48;8.80;;;1.70;;